sensor_id;sensor_type;location;lat;lon;timestamp;temperature;humidity
40828;DHT22;26549;50.918;5.338;2024-01-15T00:00:18;3.80;99.90
40828;DHT22;26549;50.918;5.338;2024-01-15T00:02:43;3.60;99.90
40828;DHT22;26549;50.918;5.338;2024-01-15T00:05:09;3.60;99.90
40828;DHT22;26549;50.918;5.338;2024-01-15T00:07:35;3.60;99.90
40828;DHT22;26549;50.918;5.338;2024-01-15T00:10:02;3.70;99.90
40828;DHT22;26549;50.918;5.338;2024-01-15T00:12:28;3.70;99.90
40828;DHT22;26549;50.918;5.338;2024-01-15T00:14:53;3.70;99.90
40828;DHT22;26549;50.918;5.338;2024-01-15T00:17:19;3.50;99.90
40828;DHT22;26549;50.918;5.338;2024-01-15T00:19:45;3.50;99.90
40828;DHT22;26549;50.918;5.338;2024-01-15T00:22:11;3.50;99.90
40828;DHT22;26549;50.918;5.338;2024-01-15T00:24:38;3.50;99.90
40828;DHT22;26549;50.918;5.338;2024-01-15T00:27:04;3.60;99.90
40828;DHT22;26549;50.918;5.338;2024-01-15T00:29:30;3.40;99.90
40828;DHT22;26549;50.918;5.338;2024-01-15T00:31:55;3.50;99.90
40828;DHT22;26549;50.918;5.338;2024-01-15T00:34:21;3.50;99.90
40828;DHT22;26549;50.918;5.338;2024-01-15T00:36:47;3.40;99.90
40828;DHT22;26549;50.918;5.338;2024-01-15T00:39:12;3.50;99.90
40828;DHT22;26549;50.918;5.338;2024-01-15T00:41:38;3.40;99.90
40828;DHT22;26549;50.918;5.338;2024-01-15T00:44:04;3.40;99.90
40828;DHT22;26549;50.918;5.338;2024-01-15T00:46:30;3.40;99.90
40828;DHT22;26549;50.918;5.338;2024-01-15T00:48:55;3.30;99.90
40828;DHT22;26549;50.918;5.338;2024-01-15T00:51:21;3.30;99.90
40828;DHT22;26549;50.918;5.338;2024-01-15T00:53:47;3.40;99.90
40828;DHT22;26549;50.918;5.338;2024-01-15T00:56:13;3.30;99.90
40828;DHT22;26549;50.918;5.338;2024-01-15T00:58:39;3.40;99.90
40828;DHT22;26549;50.918;5.338;2024-01-15T01:01:05;3.40;99.90
40828;DHT22;26549;50.918;5.338;2024-01-15T01:03:30;3.30;99.90
40828;DHT22;26549;50.918;5.338;2024-01-15T01:05:56;3.30;99.90
40828;DHT22;26549;50.918;5.338;2024-01-15T01:08:22;3.40;99.90
40828;DHT22;26549;50.918;5.338;2024-01-15T01:10:47;3.40;99.90
40828;DHT22;26549;50.918;5.338;2024-01-15T01:13:13;3.40;99.90
40828;DHT22;26549;50.918;5.338;2024-01-15T01:15:39;3.30;99.90
40828;DHT22;26549;50.918;5.338;2024-01-15T01:18:05;3.30;99.90
40828;DHT22;26549;50.918;5.338;2024-01-15T01:20:31;3.30;99.90
40828;DHT22;26549;50.918;5.338;2024-01-15T01:22:57;3.40;99.90
40828;DHT22;26549;50.918;5.338;2024-01-15T01:25:22;3.40;99.90
40828;DHT22;26549;50.918;5.338;2024-01-15T01:27:48;3.30;99.90
40828;DHT22;26549;50.918;5.338;2024-01-15T01:30:14;3.40;99.90
40828;DHT22;26549;50.918;5.338;2024-01-15T01:32:40;3.40;99.90
40828;DHT22;26549;50.918;5.338;2024-01-15T01:35:05;3.50;99.90
40828;DHT22;26549;50.918;5.338;2024-01-15T01:37:32;3.50;99.90
40828;DHT22;26549;50.918;5.338;2024-01-15T01:39:59;3.50;99.90
40828;DHT22;26549;50.918;5.338;2024-01-15T01:42:25;3.50;99.90
40828;DHT22;26549;50.918;5.338;2024-01-15T01:44:51;3.50;99.90
40828;DHT22;26549;50.918;5.338;2024-01-15T01:47:17;3.50;99.90
40828;DHT22;26549;50.918;5.338;2024-01-15T01:49:43;3.50;99.90
40828;DHT22;26549;50.918;5.338;2024-01-15T01:52:10;3.60;99.90
40828;DHT22;26549;50.918;5.338;2024-01-15T01:54:37;3.60;99.90
40828;DHT22;26549;50.918;5.338;2024-01-15T01:57:04;3.50;99.90
40828;DHT22;26549;50.918;5.338;2024-01-15T01:59:30;3.60;99.90
40828;DHT22;26549;50.918;5.338;2024-01-15T02:01:57;3.60;99.90
40828;DHT22;26549;50.918;5.338;2024-01-15T02:04:24;3.50;99.90
40828;DHT22;26549;50.918;5.338;2024-01-15T02:06:51;3.60;99.90
40828;DHT22;26549;50.918;5.338;2024-01-15T02:09:18;3.40;99.90
40828;DHT22;26549;50.918;5.338;2024-01-15T02:11:48;3.40;99.90
40828;DHT22;26549;50.918;5.338;2024-01-15T02:14:15;3.50;99.90
40828;DHT22;26549;50.918;5.338;2024-01-15T02:16:41;3.50;99.90
40828;DHT22;26549;50.918;5.338;2024-01-15T02:19:06;3.60;99.90
40828;DHT22;26549;50.918;5.338;2024-01-15T02:21:32;3.60;99.90
40828;DHT22;26549;50.918;5.338;2024-01-15T02:23:58;3.60;99.90
40828;DHT22;26549;50.918;5.338;2024-01-15T02:26:24;3.80;99.90
40828;DHT22;26549;50.918;5.338;2024-01-15T02:28:51;3.80;99.90
40828;DHT22;26549;50.918;5.338;2024-01-15T02:31:17;3.90;99.90
40828;DHT22;26549;50.918;5.338;2024-01-15T02:33:43;3.90;99.90
40828;DHT22;26549;50.918;5.338;2024-01-15T02:36:10;3.70;99.90
40828;DHT22;26549;50.918;5.338;2024-01-15T02:38:35;3.70;99.90
40828;DHT22;26549;50.918;5.338;2024-01-15T02:41:01;3.80;99.90
40828;DHT22;26549;50.918;5.338;2024-01-15T02:43:27;3.70;99.90
40828;DHT22;26549;50.918;5.338;2024-01-15T02:45:53;3.80;99.90
40828;DHT22;26549;50.918;5.338;2024-01-15T02:48:18;3.80;99.90
40828;DHT22;26549;50.918;5.338;2024-01-15T02:50:44;3.70;99.90
40828;DHT22;26549;50.918;5.338;2024-01-15T02:53:10;3.80;99.90
40828;DHT22;26549;50.918;5.338;2024-01-15T02:55:36;3.80;99.90
40828;DHT22;26549;50.918;5.338;2024-01-15T02:58:01;3.70;99.90
40828;DHT22;26549;50.918;5.338;2024-01-15T03:00:27;3.60;99.90
40828;DHT22;26549;50.918;5.338;2024-01-15T03:02:54;3.60;99.90
40828;DHT22;26549;50.918;5.338;2024-01-15T03:05:20;3.70;99.90
40828;DHT22;26549;50.918;5.338;2024-01-15T03:07:45;3.70;99.90
40828;DHT22;26549;50.918;5.338;2024-01-15T03:10:11;3.60;99.90
40828;DHT22;26549;50.918;5.338;2024-01-15T03:12:37;3.70;99.90
40828;DHT22;26549;50.918;5.338;2024-01-15T03:15:03;3.70;99.90
40828;DHT22;26549;50.918;5.338;2024-01-15T03:17:29;3.80;99.90
40828;DHT22;26549;50.918;5.338;2024-01-15T03:19:54;3.80;99.90
40828;DHT22;26549;50.918;5.338;2024-01-15T03:22:20;3.70;99.90
40828;DHT22;26549;50.918;5.338;2024-01-15T03:24:46;3.70;99.90
40828;DHT22;26549;50.918;5.338;2024-01-15T03:27:11;3.70;99.90
40828;DHT22;26549;50.918;5.338;2024-01-15T03:29:37;3.70;99.90
40828;DHT22;26549;50.918;5.338;2024-01-15T03:32:03;3.80;99.90
40828;DHT22;26549;50.918;5.338;2024-01-15T03:34:29;3.80;99.90
40828;DHT22;26549;50.918;5.338;2024-01-15T03:36:55;3.80;99.90
40828;DHT22;26549;50.918;5.338;2024-01-15T03:39:20;3.80;99.90
40828;DHT22;26549;50.918;5.338;2024-01-15T03:41:46;3.70;99.90
40828;DHT22;26549;50.918;5.338;2024-01-15T03:44:12;3.80;99.90
40828;DHT22;26549;50.918;5.338;2024-01-15T03:46:37;3.90;99.90
40828;DHT22;26549;50.918;5.338;2024-01-15T03:49:03;3.80;99.90
40828;DHT22;26549;50.918;5.338;2024-01-15T03:51:29;3.80;99.90
40828;DHT22;26549;50.918;5.338;2024-01-15T03:53:55;3.80;99.90
40828;DHT22;26549;50.918;5.338;2024-01-15T03:56:21;3.80;99.90
40828;DHT22;26549;50.918;5.338;2024-01-15T03:58:46;3.80;99.90
40828;DHT22;26549;50.918;5.338;2024-01-15T04:01:12;3.90;99.90
40828;DHT22;26549;50.918;5.338;2024-01-15T04:03:38;3.90;99.90
40828;DHT22;26549;50.918;5.338;2024-01-15T04:06:04;3.90;99.90
40828;DHT22;26549;50.918;5.338;2024-01-15T04:08:30;3.80;99.90
40828;DHT22;26549;50.918;5.338;2024-01-15T04:10:56;3.80;99.90
40828;DHT22;26549;50.918;5.338;2024-01-15T04:13:22;3.80;99.90
40828;DHT22;26549;50.918;5.338;2024-01-15T04:15:48;3.70;99.90
40828;DHT22;26549;50.918;5.338;2024-01-15T04:18:16;3.80;99.90
40828;DHT22;26549;50.918;5.338;2024-01-15T04:20:43;3.80;99.90
40828;DHT22;26549;50.918;5.338;2024-01-15T04:23:09;3.70;99.90
40828;DHT22;26549;50.918;5.338;2024-01-15T04:25:34;3.70;99.90
40828;DHT22;26549;50.918;5.338;2024-01-15T04:28:01;3.70;99.90
40828;DHT22;26549;50.918;5.338;2024-01-15T04:30:26;3.80;99.90
40828;DHT22;26549;50.918;5.338;2024-01-15T04:32:52;3.70;99.90
40828;DHT22;26549;50.918;5.338;2024-01-15T04:35:18;3.70;99.90
40828;DHT22;26549;50.918;5.338;2024-01-15T04:37:45;3.70;99.90
40828;DHT22;26549;50.918;5.338;2024-01-15T04:40:11;3.70;99.90
40828;DHT22;26549;50.918;5.338;2024-01-15T04:42:37;3.80;99.90
40828;DHT22;26549;50.918;5.338;2024-01-15T04:45:03;3.90;99.90
40828;DHT22;26549;50.918;5.338;2024-01-15T04:47:29;3.90;99.90
40828;DHT22;26549;50.918;5.338;2024-01-15T04:49:55;3.90;99.90
40828;DHT22;26549;50.918;5.338;2024-01-15T04:52:21;3.80;99.90
40828;DHT22;26549;50.918;5.338;2024-01-15T04:54:47;3.80;99.90
40828;DHT22;26549;50.918;5.338;2024-01-15T04:57:13;3.90;99.90
40828;DHT22;26549;50.918;5.338;2024-01-15T04:59:39;3.90;99.90
40828;DHT22;26549;50.918;5.338;2024-01-15T05:02:05;3.90;99.90
40828;DHT22;26549;50.918;5.338;2024-01-15T05:04:31;3.90;99.90
40828;DHT22;26549;50.918;5.338;2024-01-15T05:06:56;3.90;99.90
40828;DHT22;26549;50.918;5.338;2024-01-15T05:09:22;4.00;99.90
40828;DHT22;26549;50.918;5.338;2024-01-15T05:11:48;3.90;99.90
40828;DHT22;26549;50.918;5.338;2024-01-15T05:14:13;4.00;99.90
40828;DHT22;26549;50.918;5.338;2024-01-15T05:16:44;3.90;99.90
40828;DHT22;26549;50.918;5.338;2024-01-15T05:19:12;3.70;99.90
40828;DHT22;26549;50.918;5.338;2024-01-15T05:21:37;3.70;99.90
40828;DHT22;26549;50.918;5.338;2024-01-15T05:24:03;3.80;99.90
40828;DHT22;26549;50.918;5.338;2024-01-15T05:26:29;3.70;99.90
40828;DHT22;26549;50.918;5.338;2024-01-15T05:28:54;3.80;99.90
40828;DHT22;26549;50.918;5.338;2024-01-15T05:31:20;3.80;99.90
40828;DHT22;26549;50.918;5.338;2024-01-15T05:33:46;3.90;99.90
40828;DHT22;26549;50.918;5.338;2024-01-15T05:36:12;3.90;99.90
40828;DHT22;26549;50.918;5.338;2024-01-15T05:38:37;3.80;99.90
40828;DHT22;26549;50.918;5.338;2024-01-15T05:41:05;3.70;99.90
40828;DHT22;26549;50.918;5.338;2024-01-15T05:43:31;3.70;99.90
40828;DHT22;26549;50.918;5.338;2024-01-15T05:45:57;3.60;99.90
40828;DHT22;26549;50.918;5.338;2024-01-15T05:48:23;3.70;99.90
40828;DHT22;26549;50.918;5.338;2024-01-15T05:50:49;3.70;99.90
40828;DHT22;26549;50.918;5.338;2024-01-15T05:53:15;3.70;99.90
40828;DHT22;26549;50.918;5.338;2024-01-15T05:55:41;3.70;99.90
40828;DHT22;26549;50.918;5.338;2024-01-15T05:58:06;3.60;99.90
40828;DHT22;26549;50.918;5.338;2024-01-15T06:00:32;3.50;99.90
40828;DHT22;26549;50.918;5.338;2024-01-15T06:03:01;3.60;99.90
40828;DHT22;26549;50.918;5.338;2024-01-15T06:05:27;3.60;99.90
40828;DHT22;26549;50.918;5.338;2024-01-15T06:07:53;3.60;99.90
40828;DHT22;26549;50.918;5.338;2024-01-15T06:10:19;3.30;99.90
40828;DHT22;26549;50.918;5.338;2024-01-15T06:12:44;3.40;99.90
40828;DHT22;26549;50.918;5.338;2024-01-15T06:15:11;3.30;99.90
40828;DHT22;26549;50.918;5.338;2024-01-15T06:17:37;3.10;99.90
40828;DHT22;26549;50.918;5.338;2024-01-15T06:20:03;3.30;99.90
40828;DHT22;26549;50.918;5.338;2024-01-15T06:22:29;3.40;99.90
40828;DHT22;26549;50.918;5.338;2024-01-15T06:24:55;3.30;99.90
40828;DHT22;26549;50.918;5.338;2024-01-15T06:27:21;3.30;99.90
40828;DHT22;26549;50.918;5.338;2024-01-15T06:29:47;3.40;99.90
40828;DHT22;26549;50.918;5.338;2024-01-15T06:32:13;3.40;99.90
40828;DHT22;26549;50.918;5.338;2024-01-15T06:34:39;3.40;99.90
40828;DHT22;26549;50.918;5.338;2024-01-15T06:37:05;3.30;99.90
40828;DHT22;26549;50.918;5.338;2024-01-15T06:39:31;3.30;99.90
40828;DHT22;26549;50.918;5.338;2024-01-15T06:41:56;3.30;99.90
40828;DHT22;26549;50.918;5.338;2024-01-15T06:44:22;3.40;99.90
40828;DHT22;26549;50.918;5.338;2024-01-15T06:46:48;3.40;99.90
40828;DHT22;26549;50.918;5.338;2024-01-15T06:49:14;3.50;99.90
40828;DHT22;26549;50.918;5.338;2024-01-15T06:51:40;3.40;99.90
40828;DHT22;26549;50.918;5.338;2024-01-15T06:54:07;3.50;99.90
40828;DHT22;26549;50.918;5.338;2024-01-15T06:56:33;3.40;99.90
40828;DHT22;26549;50.918;5.338;2024-01-15T06:58:59;3.30;99.90
40828;DHT22;26549;50.918;5.338;2024-01-15T07:01:24;3.40;99.90
40828;DHT22;26549;50.918;5.338;2024-01-15T07:03:50;3.30;99.90
40828;DHT22;26549;50.918;5.338;2024-01-15T07:06:16;3.10;99.90
40828;DHT22;26549;50.918;5.338;2024-01-15T07:08:42;3.30;99.90
40828;DHT22;26549;50.918;5.338;2024-01-15T07:11:08;3.30;99.90
40828;DHT22;26549;50.918;5.338;2024-01-15T07:13:36;3.40;99.90
40828;DHT22;26549;50.918;5.338;2024-01-15T07:16:02;3.40;99.90
40828;DHT22;26549;50.918;5.338;2024-01-15T07:18:28;3.40;99.90
40828;DHT22;26549;50.918;5.338;2024-01-15T07:20:53;3.40;99.90
40828;DHT22;26549;50.918;5.338;2024-01-15T07:23:19;3.40;99.90
40828;DHT22;26549;50.918;5.338;2024-01-15T07:25:45;3.40;99.90
40828;DHT22;26549;50.918;5.338;2024-01-15T07:28:11;3.40;99.90
40828;DHT22;26549;50.918;5.338;2024-01-15T07:30:37;3.20;99.90
40828;DHT22;26549;50.918;5.338;2024-01-15T07:33:05;3.20;99.90
40828;DHT22;26549;50.918;5.338;2024-01-15T07:35:31;3.20;99.90
40828;DHT22;26549;50.918;5.338;2024-01-15T07:37:57;3.30;99.90
40828;DHT22;26549;50.918;5.338;2024-01-15T07:40:23;3.40;99.90
40828;DHT22;26549;50.918;5.338;2024-01-15T07:42:50;3.40;99.90
40828;DHT22;26549;50.918;5.338;2024-01-15T07:45:16;3.50;99.90
40828;DHT22;26549;50.918;5.338;2024-01-15T07:47:43;3.50;99.90
40828;DHT22;26549;50.918;5.338;2024-01-15T07:50:10;3.40;99.90
40828;DHT22;26549;50.918;5.338;2024-01-15T07:52:35;3.50;99.90
40828;DHT22;26549;50.918;5.338;2024-01-15T07:55:01;3.40;99.90
40828;DHT22;26549;50.918;5.338;2024-01-15T07:57:30;3.40;99.90
40828;DHT22;26549;50.918;5.338;2024-01-15T07:59:55;3.40;99.90
40828;DHT22;26549;50.918;5.338;2024-01-15T08:02:21;3.40;99.90
40828;DHT22;26549;50.918;5.338;2024-01-15T08:04:47;3.60;99.90
40828;DHT22;26549;50.918;5.338;2024-01-15T08:07:13;3.60;99.90
40828;DHT22;26549;50.918;5.338;2024-01-15T08:09:38;3.70;99.90
40828;DHT22;26549;50.918;5.338;2024-01-15T08:12:05;3.70;99.90
40828;DHT22;26549;50.918;5.338;2024-01-15T08:14:31;3.80;99.90
40828;DHT22;26549;50.918;5.338;2024-01-15T08:16:57;3.90;99.90
40828;DHT22;26549;50.918;5.338;2024-01-15T08:19:23;3.90;99.90
40828;DHT22;26549;50.918;5.338;2024-01-15T08:21:49;4.00;99.90
40828;DHT22;26549;50.918;5.338;2024-01-15T08:24:15;4.10;99.90
40828;DHT22;26549;50.918;5.338;2024-01-15T08:26:42;4.10;99.90
40828;DHT22;26549;50.918;5.338;2024-01-15T08:29:08;4.10;99.90
40828;DHT22;26549;50.918;5.338;2024-01-15T08:31:33;4.00;99.90
40828;DHT22;26549;50.918;5.338;2024-01-15T08:33:59;4.10;99.90
40828;DHT22;26549;50.918;5.338;2024-01-15T08:36:27;4.10;99.90
40828;DHT22;26549;50.918;5.338;2024-01-15T08:38:55;3.90;99.90
40828;DHT22;26549;50.918;5.338;2024-01-15T08:41:21;3.90;99.90
40828;DHT22;26549;50.918;5.338;2024-01-15T08:43:46;4.10;99.90
40828;DHT22;26549;50.918;5.338;2024-01-15T08:46:12;3.90;99.90
40828;DHT22;26549;50.918;5.338;2024-01-15T08:48:38;3.70;99.90
40828;DHT22;26549;50.918;5.338;2024-01-15T08:51:05;3.60;99.90
40828;DHT22;26549;50.918;5.338;2024-01-15T08:53:31;3.70;99.90
40828;DHT22;26549;50.918;5.338;2024-01-15T08:55:57;3.70;99.90
40828;DHT22;26549;50.918;5.338;2024-01-15T08:58:23;3.80;99.90
40828;DHT22;26549;50.918;5.338;2024-01-15T09:00:49;3.80;99.90
40828;DHT22;26549;50.918;5.338;2024-01-15T09:03:16;3.80;99.90
40828;DHT22;26549;50.918;5.338;2024-01-15T09:05:42;3.90;99.90
40828;DHT22;26549;50.918;5.338;2024-01-15T09:08:08;3.90;99.90
40828;DHT22;26549;50.918;5.338;2024-01-15T09:10:34;4.00;99.90
40828;DHT22;26549;50.918;5.338;2024-01-15T09:13:00;4.00;99.90
40828;DHT22;26549;50.918;5.338;2024-01-15T09:15:25;3.90;99.90
40828;DHT22;26549;50.918;5.338;2024-01-15T09:17:51;4.00;99.90
40828;DHT22;26549;50.918;5.338;2024-01-15T09:20:17;4.00;99.90
40828;DHT22;26549;50.918;5.338;2024-01-15T09:22:44;3.90;99.90
40828;DHT22;26549;50.918;5.338;2024-01-15T09:25:10;3.90;99.90
40828;DHT22;26549;50.918;5.338;2024-01-15T09:27:37;3.90;99.90
40828;DHT22;26549;50.918;5.338;2024-01-15T09:30:03;3.90;99.90
40828;DHT22;26549;50.918;5.338;2024-01-15T09:32:30;3.90;99.90
40828;DHT22;26549;50.918;5.338;2024-01-15T09:34:56;4.00;99.90
40828;DHT22;26549;50.918;5.338;2024-01-15T09:37:21;3.90;99.90
40828;DHT22;26549;50.918;5.338;2024-01-15T09:39:49;3.80;99.90
40828;DHT22;26549;50.918;5.338;2024-01-15T09:42:16;3.90;99.90
40828;DHT22;26549;50.918;5.338;2024-01-15T09:44:41;3.80;99.90
40828;DHT22;26549;50.918;5.338;2024-01-15T09:47:08;3.90;99.90
40828;DHT22;26549;50.918;5.338;2024-01-15T09:49:34;4.00;99.90
40828;DHT22;26549;50.918;5.338;2024-01-15T09:52:01;4.00;99.90
40828;DHT22;26549;50.918;5.338;2024-01-15T09:54:27;3.90;99.90
40828;DHT22;26549;50.918;5.338;2024-01-15T09:56:54;4.00;99.90
40828;DHT22;26549;50.918;5.338;2024-01-15T09:59:22;4.00;99.90
40828;DHT22;26549;50.918;5.338;2024-01-15T10:01:50;4.10;99.90
40828;DHT22;26549;50.918;5.338;2024-01-15T10:04:16;4.30;99.90
40828;DHT22;26549;50.918;5.338;2024-01-15T10:06:44;4.10;99.90
40828;DHT22;26549;50.918;5.338;2024-01-15T10:09:14;4.20;99.90
40828;DHT22;26549;50.918;5.338;2024-01-15T10:11:42;4.30;99.90
40828;DHT22;26549;50.918;5.338;2024-01-15T10:14:12;4.40;99.90
40828;DHT22;26549;50.918;5.338;2024-01-15T10:16:40;4.40;99.90
40828;DHT22;26549;50.918;5.338;2024-01-15T10:19:08;4.50;99.90
40828;DHT22;26549;50.918;5.338;2024-01-15T10:21:34;4.40;99.90
40828;DHT22;26549;50.918;5.338;2024-01-15T10:24:01;4.30;99.90
40828;DHT22;26549;50.918;5.338;2024-01-15T10:26:27;4.30;99.90
40828;DHT22;26549;50.918;5.338;2024-01-15T10:28:52;4.20;99.90
40828;DHT22;26549;50.918;5.338;2024-01-15T10:31:18;4.40;99.90
40828;DHT22;26549;50.918;5.338;2024-01-15T10:33:48;4.30;99.90
40828;DHT22;26549;50.918;5.338;2024-01-15T10:36:16;4.30;99.90
40828;DHT22;26549;50.918;5.338;2024-01-15T10:38:43;4.40;99.90
40828;DHT22;26549;50.918;5.338;2024-01-15T10:41:09;4.40;99.90
40828;DHT22;26549;50.918;5.338;2024-01-15T10:43:35;4.50;99.90
40828;DHT22;26549;50.918;5.338;2024-01-15T10:46:01;4.30;99.90
40828;DHT22;26549;50.918;5.338;2024-01-15T10:48:27;4.50;99.90
40828;DHT22;26549;50.918;5.338;2024-01-15T10:50:57;4.30;99.90
40828;DHT22;26549;50.918;5.338;2024-01-15T10:53:23;4.50;99.90
40828;DHT22;26549;50.918;5.338;2024-01-15T10:55:50;4.70;99.90
40828;DHT22;26549;50.918;5.338;2024-01-15T10:58:20;4.70;99.90
40828;DHT22;26549;50.918;5.338;2024-01-15T11:00:49;4.80;99.90
40828;DHT22;26549;50.918;5.338;2024-01-15T11:03:15;4.90;99.90
40828;DHT22;26549;50.918;5.338;2024-01-15T11:05:43;4.90;99.90
40828;DHT22;26549;50.918;5.338;2024-01-15T11:08:10;5.00;99.90
40828;DHT22;26549;50.918;5.338;2024-01-15T11:10:46;5.20;99.90
40828;DHT22;26549;50.918;5.338;2024-01-15T11:13:19;5.40;99.90
40828;DHT22;26549;50.918;5.338;2024-01-15T11:15:59;5.30;99.90
40828;DHT22;26549;50.918;5.338;2024-01-15T11:18:35;5.40;99.90
40828;DHT22;26549;50.918;5.338;2024-01-15T11:23:56;5.60;99.90
40828;DHT22;26549;50.918;5.338;2024-01-15T11:26:43;5.80;99.90
40828;DHT22;26549;50.918;5.338;2024-01-15T11:34:52;5.80;99.90
40828;DHT22;26549;50.918;5.338;2024-01-15T11:37:19;5.60;99.90
40828;DHT22;26549;50.918;5.338;2024-01-15T11:39:45;5.50;99.90
40828;DHT22;26549;50.918;5.338;2024-01-15T11:42:12;5.40;99.90
40828;DHT22;26549;50.918;5.338;2024-01-15T11:44:40;4.70;99.90
40828;DHT22;26549;50.918;5.338;2024-01-15T11:47:08;4.90;99.90
40828;DHT22;26549;50.918;5.338;2024-01-15T11:52:19;5.00;99.90
40828;DHT22;26549;50.918;5.338;2024-01-15T12:00:05;4.60;99.90
40828;DHT22;26549;50.918;5.338;2024-01-15T12:02:32;4.50;99.90
40828;DHT22;26549;50.918;5.338;2024-01-15T12:04:58;4.40;99.90
40828;DHT22;26549;50.918;5.338;2024-01-15T12:07:24;4.50;99.90
40828;DHT22;26549;50.918;5.338;2024-01-15T12:09:50;4.40;99.90
40828;DHT22;26549;50.918;5.338;2024-01-15T12:12:43;4.40;99.90
40828;DHT22;26549;50.918;5.338;2024-01-15T12:15:12;4.20;99.90
40828;DHT22;26549;50.918;5.338;2024-01-15T12:17:39;4.10;99.90
40828;DHT22;26549;50.918;5.338;2024-01-15T12:20:05;4.10;99.90
40828;DHT22;26549;50.918;5.338;2024-01-15T12:22:31;4.20;99.90
40828;DHT22;26549;50.918;5.338;2024-01-15T12:24:57;4.20;99.90
40828;DHT22;26549;50.918;5.338;2024-01-15T12:27:23;4.00;99.90
40828;DHT22;26549;50.918;5.338;2024-01-15T12:29:49;4.10;99.90
40828;DHT22;26549;50.918;5.338;2024-01-15T12:32:15;4.20;99.90
40828;DHT22;26549;50.918;5.338;2024-01-15T12:34:41;4.20;99.90
40828;DHT22;26549;50.918;5.338;2024-01-15T12:37:07;4.10;99.90
40828;DHT22;26549;50.918;5.338;2024-01-15T12:39:36;4.30;99.90
40828;DHT22;26549;50.918;5.338;2024-01-15T12:42:02;4.10;99.90
40828;DHT22;26549;50.918;5.338;2024-01-15T12:44:29;4.10;99.90
40828;DHT22;26549;50.918;5.338;2024-01-15T12:46:57;4.30;99.90
40828;DHT22;26549;50.918;5.338;2024-01-15T12:49:24;4.30;99.90
40828;DHT22;26549;50.918;5.338;2024-01-15T12:51:53;4.30;99.90
40828;DHT22;26549;50.918;5.338;2024-01-15T12:54:22;4.40;99.90
40828;DHT22;26549;50.918;5.338;2024-01-15T12:56:49;4.20;99.90
40828;DHT22;26549;50.918;5.338;2024-01-15T12:59:15;4.10;99.90
40828;DHT22;26549;50.918;5.338;2024-01-15T13:01:41;3.90;99.90
40828;DHT22;26549;50.918;5.338;2024-01-15T13:04:07;3.60;99.90
40828;DHT22;26549;50.918;5.338;2024-01-15T13:06:34;3.50;99.90
40828;DHT22;26549;50.918;5.338;2024-01-15T13:09:01;3.50;99.90
40828;DHT22;26549;50.918;5.338;2024-01-15T13:11:27;3.50;99.90
40828;DHT22;26549;50.918;5.338;2024-01-15T13:13:53;3.40;99.90
40828;DHT22;26549;50.918;5.338;2024-01-15T13:16:19;3.50;99.90
40828;DHT22;26549;50.918;5.338;2024-01-15T13:18:46;3.70;99.90
40828;DHT22;26549;50.918;5.338;2024-01-15T13:21:12;3.30;99.90
40828;DHT22;26549;50.918;5.338;2024-01-15T13:23:38;3.30;99.90
40828;DHT22;26549;50.918;5.338;2024-01-15T13:26:04;3.60;99.90
40828;DHT22;26549;50.918;5.338;2024-01-15T13:28:31;3.70;99.90
40828;DHT22;26549;50.918;5.338;2024-01-15T13:30:57;3.80;99.90
40828;DHT22;26549;50.918;5.338;2024-01-15T13:33:23;3.90;99.90
40828;DHT22;26549;50.918;5.338;2024-01-15T13:35:48;3.90;99.90
40828;DHT22;26549;50.918;5.338;2024-01-15T13:38:16;3.90;99.90
40828;DHT22;26549;50.918;5.338;2024-01-15T13:40:42;4.10;99.90
40828;DHT22;26549;50.918;5.338;2024-01-15T13:43:10;3.60;99.90
40828;DHT22;26549;50.918;5.338;2024-01-15T13:45:36;3.60;99.90
40828;DHT22;26549;50.918;5.338;2024-01-15T13:48:03;3.40;99.90
40828;DHT22;26549;50.918;5.338;2024-01-15T13:50:35;3.30;99.90
40828;DHT22;26549;50.918;5.338;2024-01-15T13:53:02;3.40;99.90
40828;DHT22;26549;50.918;5.338;2024-01-15T13:55:29;3.40;99.90
40828;DHT22;26549;50.918;5.338;2024-01-15T13:57:55;3.60;99.90
40828;DHT22;26549;50.918;5.338;2024-01-15T14:00:21;3.60;99.90
40828;DHT22;26549;50.918;5.338;2024-01-15T14:02:47;3.50;99.90
40828;DHT22;26549;50.918;5.338;2024-01-15T14:05:13;3.80;99.90
40828;DHT22;26549;50.918;5.338;2024-01-15T14:07:39;4.00;99.90
40828;DHT22;26549;50.918;5.338;2024-01-15T14:10:05;4.20;99.90
40828;DHT22;26549;50.918;5.338;2024-01-15T14:12:33;4.20;99.90
40828;DHT22;26549;50.918;5.338;2024-01-15T14:15:03;4.30;99.90
40828;DHT22;26549;50.918;5.338;2024-01-15T14:17:30;4.10;99.90
40828;DHT22;26549;50.918;5.338;2024-01-15T14:19:57;4.20;99.90
40828;DHT22;26549;50.918;5.338;2024-01-15T14:22:23;4.30;99.90
40828;DHT22;26549;50.918;5.338;2024-01-15T14:24:49;4.10;99.90
40828;DHT22;26549;50.918;5.338;2024-01-15T14:27:16;4.10;99.90
40828;DHT22;26549;50.918;5.338;2024-01-15T14:29:42;4.10;99.90
40828;DHT22;26549;50.918;5.338;2024-01-15T14:32:08;4.10;99.90
40828;DHT22;26549;50.918;5.338;2024-01-15T14:34:33;4.20;99.90
40828;DHT22;26549;50.918;5.338;2024-01-15T14:37:03;4.30;99.90
40828;DHT22;26549;50.918;5.338;2024-01-15T14:39:29;4.20;99.90
40828;DHT22;26549;50.918;5.338;2024-01-15T14:41:58;4.40;99.90
40828;DHT22;26549;50.918;5.338;2024-01-15T14:44:24;4.30;99.90
40828;DHT22;26549;50.918;5.338;2024-01-15T14:46:50;4.10;99.90
40828;DHT22;26549;50.918;5.338;2024-01-15T14:49:15;3.80;99.90
40828;DHT22;26549;50.918;5.338;2024-01-15T14:51:43;3.60;99.90
40828;DHT22;26549;50.918;5.338;2024-01-15T14:54:10;3.80;99.90
40828;DHT22;26549;50.918;5.338;2024-01-15T14:56:36;3.60;99.90
40828;DHT22;26549;50.918;5.338;2024-01-15T14:59:03;3.70;99.90
40828;DHT22;26549;50.918;5.338;2024-01-15T15:01:28;3.50;99.90
40828;DHT22;26549;50.918;5.338;2024-01-15T15:03:55;3.80;99.90
40828;DHT22;26549;50.918;5.338;2024-01-15T15:06:21;3.80;99.90
40828;DHT22;26549;50.918;5.338;2024-01-15T15:08:47;3.90;99.90
40828;DHT22;26549;50.918;5.338;2024-01-15T15:11:12;4.10;99.90
40828;DHT22;26549;50.918;5.338;2024-01-15T15:13:40;4.00;99.90
40828;DHT22;26549;50.918;5.338;2024-01-15T15:16:05;3.80;99.90
40828;DHT22;26549;50.918;5.338;2024-01-15T15:18:31;3.90;99.90
40828;DHT22;26549;50.918;5.338;2024-01-15T15:20:57;3.90;99.90
40828;DHT22;26549;50.918;5.338;2024-01-15T15:23:23;4.00;99.90
40828;DHT22;26549;50.918;5.338;2024-01-15T15:25:56;4.20;99.90
40828;DHT22;26549;50.918;5.338;2024-01-15T15:28:24;4.00;99.90
40828;DHT22;26549;50.918;5.338;2024-01-15T15:30:52;4.20;99.90
40828;DHT22;26549;50.918;5.338;2024-01-15T15:33:18;4.10;99.90
40828;DHT22;26549;50.918;5.338;2024-01-15T15:35:44;4.10;99.90
40828;DHT22;26549;50.918;5.338;2024-01-15T15:38:10;4.00;99.90
40828;DHT22;26549;50.918;5.338;2024-01-15T15:40:36;4.10;99.90
40828;DHT22;26549;50.918;5.338;2024-01-15T15:43:02;4.20;99.90
40828;DHT22;26549;50.918;5.338;2024-01-15T15:45:27;4.10;99.90
40828;DHT22;26549;50.918;5.338;2024-01-15T15:47:54;3.90;99.90
40828;DHT22;26549;50.918;5.338;2024-01-15T15:50:20;3.80;99.90
40828;DHT22;26549;50.918;5.338;2024-01-15T15:52:47;3.90;99.90
40828;DHT22;26549;50.918;5.338;2024-01-15T15:55:13;3.80;99.90